N30 weather

Cherry Ridge Airport
Honesdale, Pennsylvania, United States

Public forecast

Using degrees Fahrenheit for public forecast. Weather courtesy of forecast.io.

METAR (pilot weather report)

Closest report is Sullivan County International Airport, 23.3 nm (43.2 km) ENE. Retrieved 2019/04/21 22:19 UTC (7 minutes ago):

KMSV 212219Z AUTO 25005KT 10SM -RA BKN021 OVC034 13/11 A3006 RMK AO2 P0000

TAF (pilot weather forecast)

Closest forecast is Wilkes Barre Scranton International Airport, 23.7 nm (44.0 km) WSW. Retrieved 2019/04/21 18:42 UTC (4 hours ago):

TAF KAVP 211739Z 2118/2218 VRB03KT P6SM BKN060 TEMPO 2119/2123 -SHRA BKN025 FM220000 34005KT P6SM BKN035 FM220500 34004KT P6SM OVC022 FM221100 34004KT P6SM BKN015 FM221600 35008KT P6SM BKN025